sensor_id;sensor_type;location;lat;lon;timestamp;temperature;humidity
13806;DHT22;6974;53.606;9.872;2023-01-15T00:01:37;8.40;99.90
13806;DHT22;6974;53.606;9.872;2023-01-15T00:04:05;8.40;99.90
13806;DHT22;6974;53.606;9.872;2023-01-15T00:06:35;8.40;99.90
13806;DHT22;6974;53.606;9.872;2023-01-15T00:09:03;8.40;99.90
13806;DHT22;6974;53.606;9.872;2023-01-15T00:11:30;8.30;99.90
13806;DHT22;6974;53.606;9.872;2023-01-15T00:13:57;8.30;99.90
13806;DHT22;6974;53.606;9.872;2023-01-15T00:16:24;8.30;99.90
13806;DHT22;6974;53.606;9.872;2023-01-15T00:18:54;8.30;99.90
13806;DHT22;6974;53.606;9.872;2023-01-15T00:21:22;8.40;99.90
13806;DHT22;6974;53.606;9.872;2023-01-15T00:23:49;8.30;99.90
13806;DHT22;6974;53.606;9.872;2023-01-15T00:26:35;8.30;99.90
13806;DHT22;6974;53.606;9.872;2023-01-15T00:29:20;8.40;99.90
13806;DHT22;6974;53.606;9.872;2023-01-15T00:31:52;8.40;99.90
13806;DHT22;6974;53.606;9.872;2023-01-15T00:34:20;8.40;99.90
13806;DHT22;6974;53.606;9.872;2023-01-15T00:36:47;8.40;99.90
13806;DHT22;6974;53.606;9.872;2023-01-15T00:39:14;8.30;99.90
13806;DHT22;6974;53.606;9.872;2023-01-15T00:41:41;8.30;99.90
13806;DHT22;6974;53.606;9.872;2023-01-15T00:44:08;8.30;99.90
13806;DHT22;6974;53.606;9.872;2023-01-15T00:46:35;8.30;99.90
13806;DHT22;6974;53.606;9.872;2023-01-15T00:49:02;8.30;99.90
13806;DHT22;6974;53.606;9.872;2023-01-15T00:51:31;8.40;99.90
13806;DHT22;6974;53.606;9.872;2023-01-15T00:53:58;8.30;99.90
13806;DHT22;6974;53.606;9.872;2023-01-15T00:56:24;8.30;99.90
13806;DHT22;6974;53.606;9.872;2023-01-15T00:58:51;8.30;99.90
13806;DHT22;6974;53.606;9.872;2023-01-15T01:01:18;8.20;99.90
13806;DHT22;6974;53.606;9.872;2023-01-15T01:03:45;8.30;99.90
13806;DHT22;6974;53.606;9.872;2023-01-15T01:06:13;8.30;99.90
13806;DHT22;6974;53.606;9.872;2023-01-15T01:08:42;8.20;99.90
13806;DHT22;6974;53.606;9.872;2023-01-15T01:11:13;8.20;99.90
13806;DHT22;6974;53.606;9.872;2023-01-15T01:13:41;8.20;99.90
13806;DHT22;6974;53.606;9.872;2023-01-15T01:16:21;8.20;99.90
13806;DHT22;6974;53.606;9.872;2023-01-15T01:18:49;8.20;99.90
13806;DHT22;6974;53.606;9.872;2023-01-15T01:21:16;8.20;99.90
13806;DHT22;6974;53.606;9.872;2023-01-15T01:23:44;8.20;99.90
13806;DHT22;6974;53.606;9.872;2023-01-15T01:26:11;8.20;99.90
13806;DHT22;6974;53.606;9.872;2023-01-15T01:28:38;8.20;99.90
13806;DHT22;6974;53.606;9.872;2023-01-15T01:31:06;8.20;99.90
13806;DHT22;6974;53.606;9.872;2023-01-15T01:33:32;8.20;99.90
13806;DHT22;6974;53.606;9.872;2023-01-15T01:36:00;8.20;99.90
13806;DHT22;6974;53.606;9.872;2023-01-15T01:38:27;8.20;99.90
13806;DHT22;6974;53.606;9.872;2023-01-15T01:40:55;8.20;99.90
13806;DHT22;6974;53.606;9.872;2023-01-15T01:43:24;8.30;99.90
13806;DHT22;6974;53.606;9.872;2023-01-15T01:45:51;8.20;99.90
13806;DHT22;6974;53.606;9.872;2023-01-15T01:48:22;8.20;99.90
13806;DHT22;6974;53.606;9.872;2023-01-15T01:50:53;8.20;99.90
13806;DHT22;6974;53.606;9.872;2023-01-15T01:53:22;8.20;99.90
13806;DHT22;6974;53.606;9.872;2023-01-15T01:55:53;8.10;99.90
13806;DHT22;6974;53.606;9.872;2023-01-15T01:58:22;8.10;99.90
13806;DHT22;6974;53.606;9.872;2023-01-15T02:00:52;8.10;99.90
13806;DHT22;6974;53.606;9.872;2023-01-15T02:03:21;8.20;99.90
13806;DHT22;6974;53.606;9.872;2023-01-15T02:05:52;8.20;99.90
13806;DHT22;6974;53.606;9.872;2023-01-15T02:08:20;8.20;99.90
13806;DHT22;6974;53.606;9.872;2023-01-15T02:10:50;8.10;99.90
13806;DHT22;6974;53.606;9.872;2023-01-15T02:13:24;8.10;99.90
13806;DHT22;6974;53.606;9.872;2023-01-15T02:15:57;8.10;99.90
13806;DHT22;6974;53.606;9.872;2023-01-15T02:18:30;8.20;99.90
13806;DHT22;6974;53.606;9.872;2023-01-15T02:21:05;8.20;99.90
13806;DHT22;6974;53.606;9.872;2023-01-15T02:24:08;8.20;99.90
13806;DHT22;6974;53.606;9.872;2023-01-15T02:27:01;8.20;99.90
13806;DHT22;6974;53.606;9.872;2023-01-15T02:29:34;8.20;99.90
13806;DHT22;6974;53.606;9.872;2023-01-15T02:32:09;8.20;99.90
13806;DHT22;6974;53.606;9.872;2023-01-15T02:34:43;8.20;99.90
13806;DHT22;6974;53.606;9.872;2023-01-15T02:37:14;8.20;99.90
13806;DHT22;6974;53.606;9.872;2023-01-15T02:39:45;8.20;99.90
13806;DHT22;6974;53.606;9.872;2023-01-15T02:42:15;8.10;99.90
13806;DHT22;6974;53.606;9.872;2023-01-15T02:44:46;8.10;99.90
13806;DHT22;6974;53.606;9.872;2023-01-15T02:47:15;8.10;99.90
13806;DHT22;6974;53.606;9.872;2023-01-15T02:49:43;8.10;99.90
13806;DHT22;6974;53.606;9.872;2023-01-15T02:52:15;8.30;99.90
13806;DHT22;6974;53.606;9.872;2023-01-15T02:54:46;8.20;99.90
13806;DHT22;6974;53.606;9.872;2023-01-15T02:57:15;8.20;99.90
13806;DHT22;6974;53.606;9.872;2023-01-15T02:59:46;8.20;99.90
13806;DHT22;6974;53.606;9.872;2023-01-15T03:02:18;8.20;99.90
13806;DHT22;6974;53.606;9.872;2023-01-15T03:04:48;8.20;99.90
13806;DHT22;6974;53.606;9.872;2023-01-15T03:07:20;8.10;99.90
13806;DHT22;6974;53.606;9.872;2023-01-15T03:09:48;8.10;99.90
13806;DHT22;6974;53.606;9.872;2023-01-15T03:12:22;8.20;99.90
13806;DHT22;6974;53.606;9.872;2023-01-15T03:14:55;8.20;99.90
13806;DHT22;6974;53.606;9.872;2023-01-15T03:17:33;8.20;99.90
13806;DHT22;6974;53.606;9.872;2023-01-15T03:20:07;8.10;99.90
13806;DHT22;6974;53.606;9.872;2023-01-15T03:22:38;8.20;99.90
13806;DHT22;6974;53.606;9.872;2023-01-15T03:25:08;8.10;99.90
13806;DHT22;6974;53.606;9.872;2023-01-15T03:27:37;8.20;99.90
13806;DHT22;6974;53.606;9.872;2023-01-15T03:30:06;8.10;99.90
13806;DHT22;6974;53.606;9.872;2023-01-15T03:32:34;8.10;99.90
13806;DHT22;6974;53.606;9.872;2023-01-15T03:35:01;8.20;99.90
13806;DHT22;6974;53.606;9.872;2023-01-15T03:37:29;8.20;99.90
13806;DHT22;6974;53.606;9.872;2023-01-15T03:39:57;8.20;99.90
13806;DHT22;6974;53.606;9.872;2023-01-15T03:42:34;8.20;99.90
13806;DHT22;6974;53.606;9.872;2023-01-15T03:45:10;8.20;99.90
13806;DHT22;6974;53.606;9.872;2023-01-15T03:47:44;8.20;99.90
13806;DHT22;6974;53.606;9.872;2023-01-15T03:50:20;8.10;99.90
13806;DHT22;6974;53.606;9.872;2023-01-15T03:52:55;8.20;99.90
13806;DHT22;6974;53.606;9.872;2023-01-15T03:55:26;8.20;99.90
13806;DHT22;6974;53.606;9.872;2023-01-15T03:57:58;8.20;99.90
13806;DHT22;6974;53.606;9.872;2023-01-15T04:00:30;8.10;99.90
13806;DHT22;6974;53.606;9.872;2023-01-15T04:02:59;8.10;99.90
13806;DHT22;6974;53.606;9.872;2023-01-15T04:05:28;8.10;99.90
13806;DHT22;6974;53.606;9.872;2023-01-15T04:07:57;8.10;99.90
13806;DHT22;6974;53.606;9.872;2023-01-15T04:10:25;8.10;99.90
13806;DHT22;6974;53.606;9.872;2023-01-15T04:12:52;8.10;99.90
13806;DHT22;6974;53.606;9.872;2023-01-15T04:15:18;8.10;99.90
13806;DHT22;6974;53.606;9.872;2023-01-15T04:17:47;8.10;99.90
13806;DHT22;6974;53.606;9.872;2023-01-15T04:20:14;8.10;99.90
13806;DHT22;6974;53.606;9.872;2023-01-15T04:22:40;8.10;99.90
13806;DHT22;6974;53.606;9.872;2023-01-15T04:25:08;8.10;99.90
13806;DHT22;6974;53.606;9.872;2023-01-15T04:27:35;8.10;99.90
13806;DHT22;6974;53.606;9.872;2023-01-15T04:30:02;8.20;99.90
13806;DHT22;6974;53.606;9.872;2023-01-15T04:32:29;8.10;99.90
13806;DHT22;6974;53.606;9.872;2023-01-15T04:34:57;8.10;99.90
13806;DHT22;6974;53.606;9.872;2023-01-15T04:37:24;8.10;99.90
13806;DHT22;6974;53.606;9.872;2023-01-15T04:39:51;8.20;99.90
13806;DHT22;6974;53.606;9.872;2023-01-15T04:42:18;8.10;99.90
13806;DHT22;6974;53.606;9.872;2023-01-15T04:45:02;8.10;99.90
13806;DHT22;6974;53.606;9.872;2023-01-15T04:47:30;8.20;99.90
13806;DHT22;6974;53.606;9.872;2023-01-15T04:49:58;8.20;99.90
13806;DHT22;6974;53.606;9.872;2023-01-15T04:52:25;8.10;99.90
13806;DHT22;6974;53.606;9.872;2023-01-15T04:54:53;8.00;99.90
13806;DHT22;6974;53.606;9.872;2023-01-15T04:57:20;7.90;99.90
13806;DHT22;6974;53.606;9.872;2023-01-15T04:59:47;7.90;99.90
13806;DHT22;6974;53.606;9.872;2023-01-15T05:02:13;7.90;99.90
13806;DHT22;6974;53.606;9.872;2023-01-15T05:04:40;7.90;99.90
13806;DHT22;6974;53.606;9.872;2023-01-15T05:07:09;8.00;99.90
13806;DHT22;6974;53.606;9.872;2023-01-15T05:09:36;8.00;99.90
13806;DHT22;6974;53.606;9.872;2023-01-15T05:12:03;8.00;99.90
13806;DHT22;6974;53.606;9.872;2023-01-15T05:14:30;8.10;99.90
13806;DHT22;6974;53.606;9.872;2023-01-15T05:16:57;8.10;99.90
13806;DHT22;6974;53.606;9.872;2023-01-15T05:19:24;8.00;99.90
13806;DHT22;6974;53.606;9.872;2023-01-15T05:21:50;8.00;99.90
13806;DHT22;6974;53.606;9.872;2023-01-15T05:24:19;8.00;99.90
13806;DHT22;6974;53.606;9.872;2023-01-15T05:26:45;8.00;99.90
13806;DHT22;6974;53.606;9.872;2023-01-15T05:29:12;8.00;99.90
13806;DHT22;6974;53.606;9.872;2023-01-15T05:31:40;8.00;99.90
13806;DHT22;6974;53.606;9.872;2023-01-15T05:34:10;7.90;99.90
13806;DHT22;6974;53.606;9.872;2023-01-15T05:36:37;8.00;99.90
13806;DHT22;6974;53.606;9.872;2023-01-15T05:39:04;8.00;99.90
13806;DHT22;6974;53.606;9.872;2023-01-15T05:41:32;7.90;99.90
13806;DHT22;6974;53.606;9.872;2023-01-15T05:44:16;8.00;99.90
13806;DHT22;6974;53.606;9.872;2023-01-15T05:46:44;7.90;99.90
13806;DHT22;6974;53.606;9.872;2023-01-15T05:49:13;8.00;99.90
13806;DHT22;6974;53.606;9.872;2023-01-15T05:51:40;8.00;99.90
13806;DHT22;6974;53.606;9.872;2023-01-15T05:54:10;8.00;99.90
13806;DHT22;6974;53.606;9.872;2023-01-15T05:56:39;8.00;99.90
13806;DHT22;6974;53.606;9.872;2023-01-15T05:59:06;8.00;99.90
13806;DHT22;6974;53.606;9.872;2023-01-15T06:01:34;8.00;99.90
13806;DHT22;6974;53.606;9.872;2023-01-15T06:04:02;8.00;99.90
13806;DHT22;6974;53.606;9.872;2023-01-15T06:06:29;8.00;99.90
13806;DHT22;6974;53.606;9.872;2023-01-15T06:08:56;8.00;99.90
13806;DHT22;6974;53.606;9.872;2023-01-15T06:11:23;8.00;99.90
13806;DHT22;6974;53.606;9.872;2023-01-15T06:13:51;8.00;99.90
13806;DHT22;6974;53.606;9.872;2023-01-15T06:16:19;8.00;99.90
13806;DHT22;6974;53.606;9.872;2023-01-15T06:18:46;8.00;99.90
13806;DHT22;6974;53.606;9.872;2023-01-15T06:21:14;8.00;99.90
13806;DHT22;6974;53.606;9.872;2023-01-15T06:23:42;8.00;99.90
13806;DHT22;6974;53.606;9.872;2023-01-15T06:26:12;8.00;99.90
13806;DHT22;6974;53.606;9.872;2023-01-15T06:28:40;8.00;99.90
13806;DHT22;6974;53.606;9.872;2023-01-15T06:31:10;8.00;99.90
13806;DHT22;6974;53.606;9.872;2023-01-15T06:33:37;8.00;99.90
13806;DHT22;6974;53.606;9.872;2023-01-15T06:36:05;8.00;99.90
13806;DHT22;6974;53.606;9.872;2023-01-15T06:38:33;8.00;99.90
13806;DHT22;6974;53.606;9.872;2023-01-15T06:41:01;8.00;99.90
13806;DHT22;6974;53.606;9.872;2023-01-15T06:43:28;8.10;99.90
13806;DHT22;6974;53.606;9.872;2023-01-15T06:46:15;8.10;99.90
13806;DHT22;6974;53.606;9.872;2023-01-15T06:49:00;8.10;99.90
13806;DHT22;6974;53.606;9.872;2023-01-15T06:51:26;8.10;99.90
13806;DHT22;6974;53.606;9.872;2023-01-15T06:53:53;8.20;99.90
13806;DHT22;6974;53.606;9.872;2023-01-15T06:56:20;8.30;99.90
13806;DHT22;6974;53.606;9.872;2023-01-15T06:58:47;8.20;99.90
13806;DHT22;6974;53.606;9.872;2023-01-15T07:01:15;8.20;99.90
13806;DHT22;6974;53.606;9.872;2023-01-15T07:03:42;8.10;99.90
13806;DHT22;6974;53.606;9.872;2023-01-15T07:06:11;8.10;99.90
13806;DHT22;6974;53.606;9.872;2023-01-15T07:08:39;8.20;99.90
13806;DHT22;6974;53.606;9.872;2023-01-15T07:11:07;8.10;99.90
13806;DHT22;6974;53.606;9.872;2023-01-15T07:13:34;8.10;99.90
13806;DHT22;6974;53.606;9.872;2023-01-15T07:16:02;8.10;99.90
13806;DHT22;6974;53.606;9.872;2023-01-15T07:18:32;8.10;99.90
13806;DHT22;6974;53.606;9.872;2023-01-15T07:20:59;8.10;99.90
13806;DHT22;6974;53.606;9.872;2023-01-15T07:23:26;8.10;99.90
13806;DHT22;6974;53.606;9.872;2023-01-15T07:25:54;8.10;99.90
13806;DHT22;6974;53.606;9.872;2023-01-15T07:28:22;8.10;99.90
13806;DHT22;6974;53.606;9.872;2023-01-15T07:30:49;8.10;99.90
13806;DHT22;6974;53.606;9.872;2023-01-15T07:33:16;8.10;99.90
13806;DHT22;6974;53.606;9.872;2023-01-15T07:35:44;8.00;99.90
13806;DHT22;6974;53.606;9.872;2023-01-15T07:38:11;8.10;99.90
13806;DHT22;6974;53.606;9.872;2023-01-15T07:40:38;8.10;99.90
13806;DHT22;6974;53.606;9.872;2023-01-15T07:43:05;8.00;99.90
13806;DHT22;6974;53.606;9.872;2023-01-15T07:45:49;8.10;99.90
13806;DHT22;6974;53.606;9.872;2023-01-15T07:48:33;8.10;99.90
13806;DHT22;6974;53.606;9.872;2023-01-15T07:51:19;8.00;99.90
13806;DHT22;6974;53.606;9.872;2023-01-15T07:53:46;8.00;99.90
13806;DHT22;6974;53.606;9.872;2023-01-15T07:56:13;8.00;99.90
13806;DHT22;6974;53.606;9.872;2023-01-15T07:58:40;8.00;99.90
13806;DHT22;6974;53.606;9.872;2023-01-15T08:01:06;8.10;99.90
13806;DHT22;6974;53.606;9.872;2023-01-15T08:03:33;8.00;99.90
13806;DHT22;6974;53.606;9.872;2023-01-15T08:06:00;8.00;99.90
13806;DHT22;6974;53.606;9.872;2023-01-15T08:08:28;8.00;99.90
13806;DHT22;6974;53.606;9.872;2023-01-15T08:11:00;7.90;99.90
13806;DHT22;6974;53.606;9.872;2023-01-15T08:13:46;8.00;99.90
13806;DHT22;6974;53.606;9.872;2023-01-15T08:16:34;8.00;99.90
13806;DHT22;6974;53.606;9.872;2023-01-15T08:19:01;8.00;99.90
13806;DHT22;6974;53.606;9.872;2023-01-15T08:21:28;7.90;99.90
13806;DHT22;6974;53.606;9.872;2023-01-15T08:23:56;7.90;99.90
13806;DHT22;6974;53.606;9.872;2023-01-15T08:26:23;7.90;99.90
13806;DHT22;6974;53.606;9.872;2023-01-15T08:28:50;7.90;99.90
13806;DHT22;6974;53.606;9.872;2023-01-15T08:31:17;7.90;99.90
13806;DHT22;6974;53.606;9.872;2023-01-15T08:33:43;7.80;99.90
13806;DHT22;6974;53.606;9.872;2023-01-15T08:36:10;7.80;99.90
13806;DHT22;6974;53.606;9.872;2023-01-15T08:38:37;7.80;99.90
13806;DHT22;6974;53.606;9.872;2023-01-15T08:41:05;7.80;99.90
13806;DHT22;6974;53.606;9.872;2023-01-15T08:43:32;7.80;99.90
13806;DHT22;6974;53.606;9.872;2023-01-15T08:46:00;7.80;99.90
13806;DHT22;6974;53.606;9.872;2023-01-15T08:48:29;7.80;99.90
13806;DHT22;6974;53.606;9.872;2023-01-15T08:50:58;7.80;99.90
13806;DHT22;6974;53.606;9.872;2023-01-15T08:53:24;7.80;99.90
13806;DHT22;6974;53.606;9.872;2023-01-15T08:55:53;7.80;99.90
13806;DHT22;6974;53.606;9.872;2023-01-15T08:58:22;7.70;99.90
13806;DHT22;6974;53.606;9.872;2023-01-15T09:00:48;7.80;99.90
13806;DHT22;6974;53.606;9.872;2023-01-15T09:03:15;7.80;99.90
13806;DHT22;6974;53.606;9.872;2023-01-15T09:05:42;7.80;99.90
13806;DHT22;6974;53.606;9.872;2023-01-15T09:08:09;7.70;99.90
13806;DHT22;6974;53.606;9.872;2023-01-15T09:10:36;7.70;99.90
13806;DHT22;6974;53.606;9.872;2023-01-15T09:13:03;7.70;99.90
13806;DHT22;6974;53.606;9.872;2023-01-15T09:15:32;7.80;99.90
13806;DHT22;6974;53.606;9.872;2023-01-15T09:17:59;7.70;99.90
13806;DHT22;6974;53.606;9.872;2023-01-15T09:20:26;7.70;99.90
13806;DHT22;6974;53.606;9.872;2023-01-15T09:22:53;7.70;99.90
13806;DHT22;6974;53.606;9.872;2023-01-15T09:25:19;7.70;99.90
13806;DHT22;6974;53.606;9.872;2023-01-15T09:27:49;7.70;99.90
13806;DHT22;6974;53.606;9.872;2023-01-15T09:32:51;7.80;99.90
13806;DHT22;6974;53.606;9.872;2023-01-15T09:35:18;7.80;99.90
13806;DHT22;6974;53.606;9.872;2023-01-15T09:37:50;7.90;99.90
13806;DHT22;6974;53.606;9.872;2023-01-15T09:40:36;7.90;99.90
13806;DHT22;6974;53.606;9.872;2023-01-15T09:43:08;7.90;99.90
13806;DHT22;6974;53.606;9.872;2023-01-15T09:45:46;8.00;99.90
13806;DHT22;6974;53.606;9.872;2023-01-15T09:48:32;8.00;99.90
13806;DHT22;6974;53.606;9.872;2023-01-15T09:51:10;8.10;99.90
13806;DHT22;6974;53.606;9.872;2023-01-15T09:54:00;8.10;99.90
13806;DHT22;6974;53.606;9.872;2023-01-15T09:56:32;8.10;99.90
13806;DHT22;6974;53.606;9.872;2023-01-15T09:59:06;8.20;99.90
13806;DHT22;6974;53.606;9.872;2023-01-15T10:01:37;8.30;99.90
13806;DHT22;6974;53.606;9.872;2023-01-15T10:04:14;8.30;99.90
13806;DHT22;6974;53.606;9.872;2023-01-15T10:06:47;8.30;99.90
13806;DHT22;6974;53.606;9.872;2023-01-15T10:09:19;8.30;99.90
13806;DHT22;6974;53.606;9.872;2023-01-15T10:11:50;8.30;99.90
13806;DHT22;6974;53.606;9.872;2023-01-15T10:14:41;8.30;99.90
13806;DHT22;6974;53.606;9.872;2023-01-15T10:17:21;8.20;99.90
13806;DHT22;6974;53.606;9.872;2023-01-15T10:19:53;8.20;99.90
13806;DHT22;6974;53.606;9.872;2023-01-15T10:22:46;8.20;99.90
13806;DHT22;6974;53.606;9.872;2023-01-15T10:25:16;8.20;99.90
13806;DHT22;6974;53.606;9.872;2023-01-15T10:27:50;8.30;99.90
13806;DHT22;6974;53.606;9.872;2023-01-15T10:30:24;8.30;99.90
13806;DHT22;6974;53.606;9.872;2023-01-15T10:32:54;8.20;99.90
13806;DHT22;6974;53.606;9.872;2023-01-15T10:35:30;8.30;99.90
13806;DHT22;6974;53.606;9.872;2023-01-15T10:38:06;8.30;99.90
13806;DHT22;6974;53.606;9.872;2023-01-15T10:41:01;8.20;99.90
13806;DHT22;6974;53.606;9.872;2023-01-15T10:43:48;8.20;99.90
13806;DHT22;6974;53.606;9.872;2023-01-15T10:46:18;8.30;99.90
13806;DHT22;6974;53.606;9.872;2023-01-15T10:48:49;8.30;99.90
13806;DHT22;6974;53.606;9.872;2023-01-15T10:51:21;8.30;99.90
13806;DHT22;6974;53.606;9.872;2023-01-15T10:53:50;8.20;99.90
13806;DHT22;6974;53.606;9.872;2023-01-15T10:56:27;8.30;99.90
13806;DHT22;6974;53.606;9.872;2023-01-15T10:59:03;8.30;99.90
13806;DHT22;6974;53.606;9.872;2023-01-15T11:01:34;8.30;99.90
13806;DHT22;6974;53.606;9.872;2023-01-15T11:04:01;8.30;99.90
13806;DHT22;6974;53.606;9.872;2023-01-15T11:06:30;8.30;99.90
13806;DHT22;6974;53.606;9.872;2023-01-15T11:08:59;8.30;99.90
13806;DHT22;6974;53.606;9.872;2023-01-15T11:11:31;8.30;99.90
13806;DHT22;6974;53.606;9.872;2023-01-15T11:14:32;8.30;99.90
13806;DHT22;6974;53.606;9.872;2023-01-15T11:17:17;8.20;99.90
13806;DHT22;6974;53.606;9.872;2023-01-15T11:20:09;8.20;99.90
13806;DHT22;6974;53.606;9.872;2023-01-15T11:22:41;8.20;99.90
13806;DHT22;6974;53.606;9.872;2023-01-15T11:25:08;8.10;99.90
13806;DHT22;6974;53.606;9.872;2023-01-15T11:27:36;8.30;99.90
13806;DHT22;6974;53.606;9.872;2023-01-15T11:30:25;8.30;99.90
13806;DHT22;6974;53.606;9.872;2023-01-15T11:32:55;8.30;99.90
13806;DHT22;6974;53.606;9.872;2023-01-15T11:35:23;8.30;99.90
13806;DHT22;6974;53.606;9.872;2023-01-15T11:38:04;8.30;99.90
13806;DHT22;6974;53.606;9.872;2023-01-15T11:40:31;8.20;99.90
13806;DHT22;6974;53.606;9.872;2023-01-15T11:42:58;8.10;99.90
13806;DHT22;6974;53.606;9.872;2023-01-15T11:45:47;8.10;99.90
13806;DHT22;6974;53.606;9.872;2023-01-15T11:48:34;8.10;99.90
13806;DHT22;6974;53.606;9.872;2023-01-15T11:51:26;8.00;99.90
13806;DHT22;6974;53.606;9.872;2023-01-15T11:54:02;8.00;99.90
13806;DHT22;6974;53.606;9.872;2023-01-15T11:56:33;8.00;99.90
13806;DHT22;6974;53.606;9.872;2023-01-15T11:59:04;7.80;99.90
13806;DHT22;6974;53.606;9.872;2023-01-15T12:01:37;7.60;99.90
13806;DHT22;6974;53.606;9.872;2023-01-15T12:04:21;7.50;99.90
13806;DHT22;6974;53.606;9.872;2023-01-15T12:06:50;7.40;99.90
13806;DHT22;6974;53.606;9.872;2023-01-15T12:09:26;7.50;99.90
13806;DHT22;6974;53.606;9.872;2023-01-15T12:12:04;7.50;99.90
13806;DHT22;6974;53.606;9.872;2023-01-15T12:14:55;7.50;99.90
13806;DHT22;6974;53.606;9.872;2023-01-15T12:17:35;7.70;99.90
13806;DHT22;6974;53.606;9.872;2023-01-15T12:20:17;7.80;99.90
13806;DHT22;6974;53.606;9.872;2023-01-15T12:23:09;7.80;99.90
13806;DHT22;6974;53.606;9.872;2023-01-15T12:25:48;7.80;99.90
13806;DHT22;6974;53.606;9.872;2023-01-15T12:28:22;7.80;99.90
13806;DHT22;6974;53.606;9.872;2023-01-15T12:30:57;7.90;99.90
13806;DHT22;6974;53.606;9.872;2023-01-15T12:33:39;8.10;99.90
13806;DHT22;6974;53.606;9.872;2023-01-15T12:36:11;8.20;99.90
13806;DHT22;6974;53.606;9.872;2023-01-15T12:38:50;8.20;99.90
13806;DHT22;6974;53.606;9.872;2023-01-15T12:41:25;8.10;99.90
13806;DHT22;6974;53.606;9.872;2023-01-15T12:44:17;8.10;99.90
13806;DHT22;6974;53.606;9.872;2023-01-15T12:47:06;7.90;99.90
13806;DHT22;6974;53.606;9.872;2023-01-15T12:49:39;7.80;99.90
13806;DHT22;6974;53.606;9.872;2023-01-15T12:52:12;7.70;99.90
13806;DHT22;6974;53.606;9.872;2023-01-15T12:54:46;7.70;99.90
13806;DHT22;6974;53.606;9.872;2023-01-15T12:57:20;7.60;99.90
13806;DHT22;6974;53.606;9.872;2023-01-15T12:59:56;7.60;99.90
13806;DHT22;6974;53.606;9.872;2023-01-15T13:02:33;7.60;99.90
13806;DHT22;6974;53.606;9.872;2023-01-15T13:05:12;7.60;99.90
13806;DHT22;6974;53.606;9.872;2023-01-15T13:07:47;7.60;99.90
13806;DHT22;6974;53.606;9.872;2023-01-15T13:10:17;7.70;99.90
13806;DHT22;6974;53.606;9.872;2023-01-15T13:12:47;7.70;99.90
13806;DHT22;6974;53.606;9.872;2023-01-15T13:15:16;7.70;99.90
13806;DHT22;6974;53.606;9.872;2023-01-15T13:17:54;7.70;99.90
13806;DHT22;6974;53.606;9.872;2023-01-15T13:20:33;7.70;99.90
13806;DHT22;6974;53.606;9.872;2023-01-15T13:23:07;7.80;99.90
13806;DHT22;6974;53.606;9.872;2023-01-15T13:25:48;7.90;99.90
13806;DHT22;6974;53.606;9.872;2023-01-15T13:28:33;7.90;99.90
13806;DHT22;6974;53.606;9.872;2023-01-15T13:31:10;7.80;99.90
13806;DHT22;6974;53.606;9.872;2023-01-15T13:33:42;7.90;99.90
13806;DHT22;6974;53.606;9.872;2023-01-15T13:36:13;7.90;99.90
13806;DHT22;6974;53.606;9.872;2023-01-15T13:38:45;7.90;99.90
13806;DHT22;6974;53.606;9.872;2023-01-15T13:41:18;7.90;99.90
13806;DHT22;6974;53.606;9.872;2023-01-15T13:44:16;7.90;99.90
13806;DHT22;6974;53.606;9.872;2023-01-15T13:46:44;7.90;99.90
13806;DHT22;6974;53.606;9.872;2023-01-15T13:49:18;8.00;99.90
13806;DHT22;6974;53.606;9.872;2023-01-15T13:51:48;8.00;99.90
13806;DHT22;6974;53.606;9.872;2023-01-15T13:54:18;8.00;99.90
13806;DHT22;6974;53.606;9.872;2023-01-15T13:56:46;8.10;99.90
13806;DHT22;6974;53.606;9.872;2023-01-15T13:59:38;8.10;99.90
13806;DHT22;6974;53.606;9.872;2023-01-15T14:02:23;8.20;99.90
13806;DHT22;6974;53.606;9.872;2023-01-15T14:05:12;8.30;99.90
13806;DHT22;6974;53.606;9.872;2023-01-15T14:07:39;8.30;99.90
13806;DHT22;6974;53.606;9.872;2023-01-15T14:13:00;8.30;99.90
13806;DHT22;6974;53.606;9.872;2023-01-15T14:15:44;8.20;99.90
13806;DHT22;6974;53.606;9.872;2023-01-15T14:18:30;8.20;99.90
13806;DHT22;6974;53.606;9.872;2023-01-15T14:21:17;8.20;99.90
13806;DHT22;6974;53.606;9.872;2023-01-15T14:24:01;8.20;99.90
13806;DHT22;6974;53.606;9.872;2023-01-15T14:26:39;8.30;99.90
13806;DHT22;6974;53.606;9.872;2023-01-15T14:29:42;8.20;99.90
13806;DHT22;6974;53.606;9.872;2023-01-15T14:32:22;8.30;99.90
13806;DHT22;6974;53.606;9.872;2023-01-15T14:34:54;8.30;99.90
13806;DHT22;6974;53.606;9.872;2023-01-15T14:37:25;8.20;99.90
13806;DHT22;6974;53.606;9.872;2023-01-15T14:39:55;8.20;99.90
13806;DHT22;6974;53.606;9.872;2023-01-15T14:42:26;8.20;99.90
13806;DHT22;6974;53.606;9.872;2023-01-15T14:45:19;8.20;99.90
13806;DHT22;6974;53.606;9.872;2023-01-15T14:47:52;8.20;99.90
13806;DHT22;6974;53.606;9.872;2023-01-15T14:50:31;8.20;99.90
13806;DHT22;6974;53.606;9.872;2023-01-15T14:53:17;8.20;99.90
13806;DHT22;6974;53.606;9.872;2023-01-15T14:55:50;8.20;99.90
13806;DHT22;6974;53.606;9.872;2023-01-15T14:58:32;8.20;99.90
13806;DHT22;6974;53.606;9.872;2023-01-15T15:01:03;8.20;99.90
13806;DHT22;6974;53.606;9.872;2023-01-15T15:03:43;8.30;99.90
13806;DHT22;6974;53.606;9.872;2023-01-15T15:06:13;8.30;99.90
13806;DHT22;6974;53.606;9.872;2023-01-15T15:08:42;8.30;99.90
13806;DHT22;6974;53.606;9.872;2023-01-15T15:11:17;8.20;99.90
13806;DHT22;6974;53.606;9.872;2023-01-15T15:14:00;8.10;99.90
13806;DHT22;6974;53.606;9.872;2023-01-15T15:16:31;8.00;99.90
13806;DHT22;6974;53.606;9.872;2023-01-15T15:19:05;8.00;99.90
13806;DHT22;6974;53.606;9.872;2023-01-15T15:21:40;7.90;99.90
13806;DHT22;6974;53.606;9.872;2023-01-15T15:24:15;7.80;99.90
13806;DHT22;6974;53.606;9.872;2023-01-15T15:26:44;7.80;99.90
13806;DHT22;6974;53.606;9.872;2023-01-15T15:29:13;7.60;99.90
13806;DHT22;6974;53.606;9.872;2023-01-15T15:31:44;7.60;99.90
13806;DHT22;6974;53.606;9.872;2023-01-15T15:34:16;7.50;99.90
13806;DHT22;6974;53.606;9.872;2023-01-15T15:36:45;7.40;99.90
13806;DHT22;6974;53.606;9.872;2023-01-15T15:39:18;7.30;99.90
13806;DHT22;6974;53.606;9.872;2023-01-15T15:41:48;7.20;99.90
13806;DHT22;6974;53.606;9.872;2023-01-15T15:44:35;7.20;99.90
13806;DHT22;6974;53.606;9.872;2023-01-15T15:47:21;7.20;99.90
13806;DHT22;6974;53.606;9.872;2023-01-15T15:50:18;7.10;99.90
13806;DHT22;6974;53.606;9.872;2023-01-15T15:52:48;7.10;99.90
13806;DHT22;6974;53.606;9.872;2023-01-15T15:55:16;7.00;99.90
13806;DHT22;6974;53.606;9.872;2023-01-15T15:57:44;7.00;99.90
13806;DHT22;6974;53.606;9.872;2023-01-15T16:00:16;7.00;99.90
13806;DHT22;6974;53.606;9.872;2023-01-15T16:02:44;6.90;99.90
13806;DHT22;6974;53.606;9.872;2023-01-15T16:05:23;6.90;99.90
13806;DHT22;6974;53.606;9.872;2023-01-15T16:07:52;6.90;99.90
13806;DHT22;6974;53.606;9.872;2023-01-15T16:10:24;6.90;99.90
13806;DHT22;6974;53.606;9.872;2023-01-15T16:12:53;6.80;99.90
13806;DHT22;6974;53.606;9.872;2023-01-15T16:15:24;6.80;99.90
13806;DHT22;6974;53.606;9.872;2023-01-15T16:17:53;6.70;99.90
13806;DHT22;6974;53.606;9.872;2023-01-15T16:20:23;6.70;99.90
13806;DHT22;6974;53.606;9.872;2023-01-15T16:22:55;6.70;99.90
13806;DHT22;6974;53.606;9.872;2023-01-15T16:25:24;6.70;99.90
13806;DHT22;6974;53.606;9.872;2023-01-15T16:27:51;6.70;99.90
13806;DHT22;6974;53.606;9.872;2023-01-15T16:30:19;6.70;99.90
13806;DHT22;6974;53.606;9.872;2023-01-15T16:32:47;6.70;99.90
13806;DHT22;6974;53.606;9.872;2023-01-15T16:35:16;6.70;99.90
13806;DHT22;6974;53.606;9.872;2023-01-15T16:37:48;6.70;99.90
13806;DHT22;6974;53.606;9.872;2023-01-15T16:40:25;6.60;99.90